createdAt,value
2019-05-22T00:01:27.145Z,19.45
2019-05-22T00:03:57.384Z,18.40
2019-05-22T00:06:30.222Z,20.95
2019-05-22T00:08:59.003Z,17.30
2019-05-22T00:11:29.283Z,13.85
2019-05-22T00:13:59.617Z,20.70
2019-05-22T00:16:28.138Z,18.77
2019-05-22T00:18:57.103Z,15.50
2019-05-22T00:21:25.593Z,20.57
2019-05-22T00:23:54.756Z,20.48
2019-05-22T00:26:23.169Z,24.12
2019-05-22T00:28:54.011Z,21.93
2019-05-22T00:31:23.272Z,19.87
2019-05-22T00:33:52.036Z,22.37
2019-05-22T00:36:20.509Z,18.75
2019-05-22T00:38:51.164Z,20.82
2019-05-22T00:41:20.949Z,20.77
2019-05-22T00:43:51.585Z,14.65
2019-05-22T00:46:21.089Z,22.17
2019-05-22T00:48:51.333Z,18.45
2019-05-22T00:51:36.203Z,20.82
2019-05-22T00:54:09.869Z,22.40
2019-05-22T00:56:45.939Z,21.05
2019-05-22T00:59:21.676Z,22.73
2019-05-22T01:01:53.968Z,18.80
2019-05-22T01:04:24.089Z,15.00
2019-05-22T01:06:54.712Z,19.52
2019-05-22T01:09:30.527Z,20.25
2019-05-22T01:12:00.381Z,19.55
2019-05-22T01:14:42.376Z,20.90
2019-05-22T01:17:03.562Z,23.42
2019-05-22T01:19:34.480Z,22.22
2019-05-22T01:22:04.997Z,20.75
2019-05-22T01:27:02.347Z,19.98
2019-05-22T01:29:30.934Z,16.93
2019-05-22T01:32:19.239Z,16.95
2019-05-22T01:34:47.951Z,19.60
2019-05-22T01:37:18.371Z,21.00
2019-05-22T01:39:54.024Z,21.60
2019-05-22T01:42:27.220Z,19.32
2019-05-22T01:45:06.004Z,24.15
2019-05-22T01:47:37.924Z,20.62
2019-05-22T01:50:08.199Z,20.32
2019-05-22T01:52:38.144Z,16.57
2019-05-22T01:55:08.954Z,16.17
2019-05-22T01:57:38.781Z,15.15
2019-05-22T02:00:09.464Z,22.00
2019-05-22T02:02:38.123Z,23.67
2019-05-22T02:05:09.847Z,23.12
2019-05-22T02:07:38.917Z,23.35
2019-05-22T02:10:10.725Z,21.70
2019-05-22T02:13:00.030Z,25.92
2019-05-22T02:15:30.544Z,28.23
2019-05-22T02:20:28.376Z,23.77
2019-05-22T02:22:57.316Z,22.05
2019-05-22T02:25:26.640Z,22.62
2019-05-22T02:27:56.608Z,20.60
2019-05-22T02:30:27.889Z,22.67
2019-05-22T02:32:57.318Z,25.17
2019-05-22T02:35:26.556Z,26.23
2019-05-22T02:37:56.101Z,26.33
2019-05-22T02:40:32.113Z,25.30
2019-05-22T02:43:02.050Z,25.08
2019-05-22T02:45:31.377Z,23.42
2019-05-22T02:48:02.393Z,19.10
2019-05-22T02:50:33.233Z,26.02
2019-05-22T02:53:03.365Z,24.92
2019-05-22T02:55:32.619Z,16.45
2019-05-22T02:58:03.324Z,26.55
2019-05-22T03:00:35.512Z,24.67
2019-05-22T03:03:07.121Z,19.98
2019-05-22T03:05:35.896Z,19.70
2019-05-22T03:08:05.038Z,25.23
2019-05-22T03:10:34.871Z,15.70
2019-05-22T03:13:04.027Z,19.92
2019-05-22T03:15:32.815Z,12.75
2019-05-22T03:18:05.193Z,21.02
2019-05-22T03:20:33.805Z,22.85
2019-05-22T03:23:09.658Z,22.75
2019-05-22T03:25:38.597Z,18.82
2019-05-22T03:28:07.699Z,19.90
2019-05-22T03:30:39.872Z,20.70
2019-05-22T03:33:09.770Z,22.32
2019-05-22T03:35:47.033Z,16.57
2019-05-22T03:38:17.649Z,20.23
2019-05-22T03:43:24.821Z,22.55
2019-05-22T03:45:56.140Z,20.45
2019-05-22T03:48:27.259Z,25.35
2019-05-22T03:51:10.056Z,20.05
2019-05-22T03:53:39.895Z,20.35
2019-05-22T03:56:08.845Z,21.68
2019-05-22T03:58:37.330Z,22.20
2019-05-22T04:01:07.615Z,17.77
2019-05-22T04:03:36.005Z,16.25
2019-05-22T04:06:05.821Z,21.60
2019-05-22T04:08:34.493Z,17.40
2019-05-22T04:11:05.212Z,18.48
2019-05-22T04:13:34.276Z,18.12
2019-05-22T04:16:04.867Z,19.52
2019-05-22T04:21:04.651Z,19.75
2019-05-22T04:23:33.695Z,18.95
2019-05-22T04:26:04.299Z,17.27
2019-05-22T04:31:03.247Z,22.37
2019-05-22T04:33:31.663Z,21.42
2019-05-22T04:36:01.686Z,19.27
2019-05-22T04:38:31.361Z,21.05
2019-05-22T04:41:01.505Z,21.00
2019-05-22T04:43:34.093Z,20.80
2019-05-22T04:46:04.508Z,16.87
2019-05-22T04:48:34.953Z,22.07
2019-05-22T04:51:22.562Z,23.25
2019-05-22T04:53:51.552Z,19.65
2019-05-22T04:56:19.999Z,20.05
2019-05-22T04:58:49.044Z,18.80
2019-05-22T05:01:19.666Z,14.63
2019-05-22T05:03:48.340Z,18.45
2019-05-22T05:06:18.375Z,20.57
2019-05-22T05:08:47.626Z,22.65
2019-05-22T05:11:17.795Z,21.40
2019-05-22T05:13:46.265Z,17.35
2019-05-22T05:16:14.678Z,13.70
2019-05-22T05:18:43.281Z,21.75
2019-05-22T05:21:11.685Z,19.37
2019-05-22T05:23:40.228Z,18.70
2019-05-22T05:26:08.877Z,19.02
2019-05-22T05:28:37.828Z,17.25
2019-05-22T05:31:06.632Z,14.98
2019-05-22T05:33:38.108Z,17.80
2019-05-22T05:36:07.467Z,16.10
2019-05-22T05:38:38.320Z,17.57
2019-05-22T05:41:07.294Z,19.75
2019-05-22T05:43:36.339Z,17.77
2019-05-22T05:46:05.172Z,13.18
2019-05-22T05:48:34.922Z,13.98
2019-05-22T05:51:09.799Z,18.05
2019-05-22T05:53:59.756Z,15.48
2019-05-22T05:56:31.817Z,17.70
2019-05-22T05:59:09.074Z,13.08
2019-05-22T06:01:35.440Z,15.88
2019-05-22T06:04:04.397Z,13.03
2019-05-22T06:06:36.151Z,13.65
2019-05-22T06:09:08.409Z,13.30
2019-05-22T06:11:52.736Z,15.25
2019-05-22T06:14:25.643Z,15.83
2019-05-22T06:17:18.133Z,15.15
2019-05-22T06:19:52.239Z,14.07
2019-05-22T06:22:21.483Z,17.77
2019-05-22T06:24:59.664Z,15.10
2019-05-22T06:27:30.532Z,17.67
2019-05-22T06:30:04.728Z,14.95
2019-05-22T06:32:55.296Z,12.03
2019-05-22T06:37:59.357Z,16.20
2019-05-22T06:40:29.472Z,15.68
2019-05-22T06:43:20.713Z,14.78
2019-05-22T06:45:49.372Z,12.88
2019-05-22T06:48:17.776Z,15.05
2019-05-22T06:50:49.271Z,15.08
2019-05-22T06:53:16.715Z,16.45
2019-05-22T06:55:45.192Z,13.05
2019-05-22T06:58:13.640Z,15.18
2019-05-22T07:00:43.221Z,15.48
2019-05-22T07:03:11.674Z,15.80
2019-05-22T07:05:40.705Z,16.07
2019-05-22T07:08:10.864Z,16.82
2019-05-22T07:10:39.700Z,16.67
2019-05-22T07:13:09.516Z,14.95
2019-05-22T07:15:40.302Z,16.45
2019-05-22T07:18:12.826Z,12.13
2019-05-22T07:20:42.000Z,15.88
2019-05-22T07:23:12.293Z,16.62
2019-05-22T07:25:42.635Z,17.15
2019-05-22T07:28:11.253Z,16.85
2019-05-22T07:30:39.993Z,16.45
2019-05-22T07:33:08.856Z,13.65
2019-05-22T07:35:56.384Z,13.78
2019-05-22T07:38:08.018Z,15.23
2019-05-22T07:40:37.538Z,15.18
2019-05-22T07:43:06.733Z,16.15
2019-05-22T07:45:35.286Z,15.03
2019-05-22T07:48:23.553Z,12.65
2019-05-22T07:50:54.043Z,14.38
2019-05-22T07:55:53.800Z,14.38
2019-05-22T07:58:23.941Z,14.25
2019-05-22T08:00:54.158Z,13.38
2019-05-22T08:03:25.045Z,13.75
2019-05-22T08:05:55.363Z,12.90
2019-05-22T08:08:25.576Z,14.95
2019-05-22T08:10:56.294Z,13.35
2019-05-22T08:13:26.018Z,13.13
2019-05-22T08:15:54.498Z,12.85
2019-05-22T08:18:23.142Z,14.33
2019-05-22T08:20:51.813Z,15.30
2019-05-22T08:23:21.625Z,14.93
2019-05-22T08:25:50.901Z,12.47
2019-05-22T08:28:20.805Z,14.20
2019-05-22T08:30:49.834Z,15.18
2019-05-22T08:33:19.741Z,12.70
2019-05-22T08:35:48.521Z,12.37
2019-05-22T08:38:18.524Z,11.35
2019-05-22T08:40:47.353Z,11.60
2019-05-22T08:43:16.100Z,12.40
2019-05-22T08:45:44.556Z,12.88
2019-05-22T08:48:13.342Z,11.97
2019-05-22T08:50:44.624Z,11.40
2019-05-22T08:53:15.629Z,10.82
2019-05-22T08:55:44.656Z,10.60
2019-05-22T08:58:15.462Z,11.48
2019-05-22T09:00:45.092Z,12.55
2019-05-22T09:03:14.604Z,11.00
2019-05-22T09:05:43.056Z,12.20
2019-05-22T09:08:11.451Z,11.08
2019-05-22T09:10:39.927Z,10.95
2019-05-22T09:13:08.331Z,10.18
2019-05-22T09:15:38.536Z,9.55
2019-05-22T09:18:07.316Z,9.68
2019-05-22T09:20:48.999Z,9.75
2019-05-22T09:23:08.306Z,10.13
2019-05-22T09:25:37.541Z,8.83
2019-05-22T09:28:06.617Z,8.73
2019-05-22T09:30:35.550Z,9.75
2019-05-22T09:33:05.464Z,8.98
2019-05-22T09:35:34.569Z,10.45
2019-05-22T09:38:03.052Z,10.88
2019-05-22T09:40:32.894Z,9.45
2019-05-22T09:43:02.174Z,9.33
2019-05-22T09:45:30.890Z,11.63
2019-05-22T09:47:59.661Z,9.28
2019-05-22T09:50:28.489Z,11.78
2019-05-22T09:52:58.450Z,9.85
2019-05-22T09:55:27.066Z,12.25
2019-05-22T09:57:55.752Z,12.43
2019-05-22T10:00:25.011Z,14.90
2019-05-22T10:02:54.747Z,11.85
2019-05-22T10:05:23.127Z,12.82
2019-05-22T10:08:00.694Z,12.15
2019-05-22T10:10:22.518Z,12.60
2019-05-22T10:12:51.579Z,13.00
2019-05-22T10:15:20.932Z,10.45
2019-05-22T10:17:49.998Z,11.50
2019-05-22T10:20:20.409Z,12.23
2019-05-22T10:22:49.465Z,12.75
2019-05-22T10:25:18.278Z,11.85
2019-05-22T10:27:47.701Z,9.38
2019-05-22T10:30:26.944Z,10.75
2019-05-22T10:32:55.337Z,9.33
2019-05-22T10:35:25.142Z,8.90
2019-05-22T10:37:54.885Z,9.45
2019-05-22T10:40:23.623Z,9.55
2019-05-22T10:42:52.203Z,8.80
2019-05-22T10:45:20.971Z,9.45
2019-05-22T10:47:49.664Z,8.20
2019-05-22T10:50:19.065Z,7.75
2019-05-22T10:52:53.989Z,7.03
2019-05-22T10:55:20.447Z,8.10
2019-05-22T10:57:49.157Z,9.10
2019-05-22T11:00:19.113Z,8.85
2019-05-22T11:02:48.295Z,10.15
2019-05-22T11:05:18.523Z,10.40
2019-05-22T11:07:47.593Z,9.70
2019-05-22T11:10:16.466Z,12.28
2019-05-22T11:12:45.835Z,11.00
2019-05-22T11:15:15.840Z,11.25
2019-05-22T11:17:44.946Z,11.55
2019-05-22T11:20:15.347Z,11.38
2019-05-22T11:22:44.031Z,10.25
2019-05-22T11:25:14.751Z,11.05
2019-05-22T11:27:43.523Z,11.93
2019-05-22T11:30:12.770Z,11.43
2019-05-22T11:32:41.163Z,11.22
2019-05-22T11:35:11.388Z,12.82
2019-05-22T11:37:40.021Z,12.15
2019-05-22T11:40:09.659Z,11.75
2019-05-22T11:42:39.137Z,11.00
2019-05-22T11:45:11.296Z,10.98
2019-05-22T11:47:40.909Z,10.03
2019-05-22T11:50:14.016Z,10.50
2019-05-22T11:52:42.440Z,9.05
2019-05-22T11:55:13.229Z,9.90
2019-05-22T11:57:46.105Z,9.43
2019-05-22T12:00:16.543Z,10.35
2019-05-22T12:05:15.681Z,9.40
2019-05-22T12:07:46.013Z,9.25
2019-05-22T12:10:15.562Z,10.13
2019-05-22T12:12:45.024Z,10.03
2019-05-22T12:15:13.997Z,9.83
2019-05-22T12:17:42.659Z,10.15
2019-05-22T12:20:13.077Z,10.18
2019-05-22T12:25:12.000Z,7.97
2019-05-22T12:27:40.403Z,9.65
2019-05-22T12:30:11.240Z,7.92
2019-05-22T12:32:40.599Z,7.70
2019-05-22T12:35:11.864Z,10.20
2019-05-22T12:37:41.502Z,10.40
2019-05-22T12:40:13.107Z,9.78
2019-05-22T12:42:41.706Z,11.00
2019-05-22T12:45:11.014Z,10.68
2019-05-22T12:47:39.993Z,10.28
2019-05-22T12:50:08.945Z,9.38
2019-05-22T12:52:38.693Z,9.38
2019-05-22T12:55:07.994Z,7.90
2019-05-22T12:57:36.757Z,8.10
2019-05-22T13:00:09.631Z,8.08
2019-05-22T13:02:42.434Z,7.85
2019-05-22T13:05:13.993Z,6.12
2019-05-22T13:07:40.612Z,6.62
2019-05-22T13:10:10.028Z,8.75
2019-05-22T13:12:38.429Z,9.10
2019-05-22T13:15:10.635Z,9.38
2019-05-22T13:17:39.425Z,9.65
2019-05-22T13:20:12.452Z,9.65
2019-05-22T13:22:45.117Z,8.63
2019-05-22T13:25:16.838Z,9.30
2019-05-22T13:27:45.449Z,8.50
2019-05-22T13:30:17.041Z,8.73
2019-05-22T13:32:46.462Z,8.80
2019-05-22T13:35:17.674Z,8.03
2019-05-22T13:37:46.200Z,8.38
2019-05-22T13:40:27.019Z,8.00
2019-05-22T13:42:46.450Z,7.67
2019-05-22T13:45:28.729Z,7.95
2019-05-22T13:47:47.303Z,6.47
2019-05-22T13:50:17.233Z,5.58
2019-05-22T13:52:46.829Z,6.33
2019-05-22T13:55:17.529Z,5.33
2019-05-22T13:57:47.364Z,4.55
2019-05-22T14:00:18.857Z,3.65
2019-05-22T14:02:47.928Z,3.10
2019-05-22T14:05:18.493Z,4.00
2019-05-22T14:07:47.165Z,3.83
2019-05-22T14:10:18.311Z,4.20
2019-05-22T14:12:47.268Z,4.67
2019-05-22T14:15:16.010Z,4.65
2019-05-22T14:17:44.408Z,4.72
2019-05-22T14:20:14.169Z,4.50
2019-05-22T14:22:42.966Z,4.60
2019-05-22T14:25:11.800Z,5.42
2019-05-22T14:27:41.916Z,5.37
2019-05-22T14:30:13.125Z,4.72
2019-05-22T14:32:41.831Z,4.97
2019-05-22T14:35:12.070Z,5.42
2019-05-22T14:37:41.232Z,5.12
2019-05-22T14:40:11.373Z,6.60
2019-05-22T14:42:39.778Z,6.70
2019-05-22T14:45:08.624Z,6.85
2019-05-22T14:47:37.453Z,7.70
2019-05-22T14:50:07.876Z,8.25
2019-05-22T14:55:06.254Z,9.08
2019-05-22T14:57:34.921Z,9.15
2019-05-22T15:00:04.885Z,9.08
2019-05-22T15:02:33.296Z,10.48
2019-05-22T15:05:02.463Z,10.28
2019-05-22T15:07:31.128Z,10.20
2019-05-22T15:09:59.516Z,10.60
2019-05-22T15:12:28.022Z,11.48
2019-05-22T15:14:56.485Z,10.45
2019-05-22T15:17:32.461Z,10.55
2019-05-22T15:19:55.920Z,10.32
2019-05-22T15:22:24.369Z,11.28
2019-05-22T15:24:53.381Z,10.95
2019-05-22T15:27:22.141Z,11.40
2019-05-22T15:29:50.707Z,12.75
2019-05-22T15:32:19.214Z,11.53
2019-05-22T15:34:47.675Z,11.18
2019-05-22T15:37:19.386Z,11.90
2019-05-22T15:39:48.570Z,10.75
2019-05-22T15:42:42.415Z,11.60
2019-05-22T15:45:17.402Z,9.25
2019-05-22T15:47:56.606Z,9.18
2019-05-22T15:50:21.125Z,10.03
2019-05-22T15:52:53.388Z,11.22
2019-05-22T15:55:25.969Z,10.68
2019-05-22T15:57:58.196Z,9.88
2019-05-22T16:00:31.644Z,7.97
2019-05-22T16:03:09.748Z,7.50
2019-05-22T16:05:40.225Z,8.35
2019-05-22T16:10:41.161Z,6.00
2019-05-22T16:13:12.530Z,4.80
2019-05-22T16:15:43.681Z,4.87
2019-05-22T16:18:13.696Z,6.22
2019-05-22T16:20:43.496Z,6.53
2019-05-22T16:23:12.998Z,6.40
2019-05-22T16:25:42.496Z,6.10
2019-05-22T16:28:13.053Z,5.37
2019-05-22T16:30:42.953Z,6.42
2019-05-22T16:33:12.905Z,6.25
2019-05-22T16:35:42.409Z,6.10
2019-05-22T16:38:11.262Z,6.77
2019-05-22T16:40:40.501Z,6.80
2019-05-22T16:43:09.375Z,6.20
2019-05-22T16:45:38.726Z,6.17
2019-05-22T16:48:09.152Z,5.58
2019-05-22T16:53:11.893Z,5.87
2019-05-22T16:55:41.403Z,5.60
2019-05-22T16:58:10.828Z,5.70
2019-05-22T17:00:40.689Z,6.37
2019-05-22T17:03:09.239Z,6.55
2019-05-22T17:05:39.177Z,6.80
2019-05-22T17:08:09.406Z,5.87
2019-05-22T17:10:39.607Z,6.33
2019-05-22T17:13:12.091Z,6.67
2019-05-22T17:15:40.242Z,6.97
2019-05-22T17:18:09.990Z,6.92
2019-05-22T17:20:38.981Z,6.65
2019-05-22T17:23:08.920Z,6.83
2019-05-22T17:25:38.853Z,6.58
2019-05-22T17:28:08.775Z,6.67
2019-05-22T17:30:38.535Z,6.90
2019-05-22T17:33:07.763Z,6.47
2019-05-22T17:35:37.566Z,5.97
2019-05-22T17:38:08.467Z,5.25
2019-05-22T17:40:37.400Z,5.67
2019-05-22T17:43:09.467Z,5.30
2019-05-22T17:45:40.070Z,5.65
2019-05-22T17:50:38.170Z,6.30
2019-05-22T17:53:07.185Z,6.65
2019-05-22T17:55:35.709Z,5.95
2019-05-22T17:58:04.174Z,5.90
2019-05-22T18:00:34.647Z,6.65
2019-05-22T18:05:33.529Z,6.00
2019-05-22T18:08:02.509Z,5.62
2019-05-22T18:10:33.712Z,6.05
2019-05-22T18:13:03.239Z,6.30
2019-05-22T18:15:31.791Z,6.20
2019-05-22T18:18:00.561Z,6.35
2019-05-22T18:20:41.750Z,7.30
2019-05-22T18:23:00.050Z,7.10
2019-05-22T18:25:28.814Z,6.47
2019-05-22T18:27:58.002Z,6.78
2019-05-22T18:30:27.158Z,7.37
2019-05-22T18:32:55.904Z,8.45
2019-05-22T18:35:24.489Z,8.08
2019-05-22T18:37:52.882Z,8.40
2019-05-22T18:40:22.561Z,9.80
2019-05-22T18:42:51.152Z,9.38
2019-05-22T18:45:23.072Z,9.55
2019-05-22T18:47:51.819Z,10.08
2019-05-22T18:50:20.353Z,10.55
2019-05-22T18:52:51.868Z,10.88
2019-05-22T18:55:20.280Z,11.25
2019-05-22T18:57:48.757Z,10.28
2019-05-22T19:00:21.607Z,10.43
2019-05-22T19:02:50.429Z,11.20
2019-05-22T19:05:21.903Z,11.18
2019-05-22T19:07:50.675Z,11.10
2019-05-22T19:10:20.091Z,11.25
2019-05-22T19:12:48.616Z,10.32
2019-05-22T19:15:18.355Z,11.70
2019-05-22T19:17:47.080Z,11.22
2019-05-22T19:20:16.141Z,11.03
2019-05-22T19:22:58.512Z,12.53
2019-05-22T19:25:15.929Z,13.30
2019-05-22T19:27:44.342Z,11.83
2019-05-22T19:30:14.648Z,12.95
2019-05-22T19:32:43.217Z,12.60
2019-05-22T19:35:11.864Z,12.13
2019-05-22T19:37:40.533Z,11.20
2019-05-22T19:40:10.911Z,12.43
2019-05-22T19:42:39.307Z,10.78
2019-05-22T19:45:09.524Z,10.98
2019-05-22T19:47:39.539Z,12.78
2019-05-22T19:50:22.284Z,12.23
2019-05-22T19:52:42.118Z,10.82
2019-05-22T19:55:14.373Z,12.20
2019-05-22T19:57:43.316Z,12.33
2019-05-22T20:00:13.433Z,12.80
2019-05-22T20:02:42.058Z,13.08
2019-05-22T20:05:11.768Z,12.65
2019-05-22T20:07:41.012Z,13.00
2019-05-22T20:10:13.511Z,13.30
2019-05-22T20:12:43.788Z,12.45
2019-05-22T20:15:13.393Z,14.07
2019-05-22T20:17:41.897Z,12.68
2019-05-22T20:20:12.622Z,14.93
2019-05-22T20:22:42.368Z,13.62
2019-05-22T20:25:11.800Z,15.05
2019-05-22T20:27:41.339Z,13.68
2019-05-22T20:30:12.082Z,15.65
2019-05-22T20:32:41.117Z,16.25
2019-05-22T20:35:10.149Z,15.93
2019-05-22T20:37:39.033Z,17.45
2019-05-22T20:40:08.858Z,18.42
2019-05-22T20:42:38.033Z,18.23
2019-05-22T20:45:08.030Z,18.75
2019-05-22T20:47:39.239Z,17.82
2019-05-22T20:50:12.482Z,16.87
2019-05-22T20:52:41.542Z,16.12
2019-05-22T20:55:12.239Z,16.62
2019-05-22T20:57:42.477Z,16.17
2019-05-22T21:00:14.255Z,16.35
2019-05-22T21:02:44.811Z,16.20
2019-05-22T21:07:47.553Z,16.97
2019-05-22T21:10:16.693Z,16.70
2019-05-22T21:12:46.236Z,16.25
2019-05-22T21:15:15.929Z,17.25
2019-05-22T21:17:45.124Z,15.97
2019-05-22T21:20:15.224Z,16.20
2019-05-22T21:22:44.766Z,17.42
2019-05-22T21:25:13.765Z,17.02
2019-05-22T21:27:42.501Z,16.80
2019-05-22T21:30:12.720Z,16.62
2019-05-22T21:32:42.200Z,16.62
2019-05-22T21:35:11.300Z,16.82
2019-05-22T21:37:41.144Z,16.42
2019-05-22T21:40:10.760Z,16.60
2019-05-22T21:42:41.328Z,16.83
2019-05-22T21:45:11.048Z,15.40
2019-05-22T21:47:41.539Z,15.58
2019-05-22T21:50:11.162Z,15.50
2019-05-22T21:52:40.017Z,15.57
2019-05-22T21:55:10.309Z,16.32
2019-05-22T21:57:39.543Z,16.27
2019-05-22T22:00:18.040Z,15.95
2019-05-22T22:02:50.126Z,17.02
2019-05-22T22:05:19.916Z,15.53
2019-05-22T22:07:48.660Z,17.73
2019-05-22T22:10:17.922Z,15.70
2019-05-22T22:12:47.861Z,16.85
2019-05-22T22:15:17.510Z,17.57
2019-05-22T22:17:47.360Z,15.60
2019-05-22T22:20:18.699Z,14.20
2019-05-22T22:22:48.917Z,16.60
2019-05-22T22:25:18.926Z,15.05
2019-05-22T22:27:47.567Z,14.00
2019-05-22T22:30:19.451Z,15.13
2019-05-22T22:32:48.875Z,14.83
2019-05-22T22:35:18.174Z,16.60
2019-05-22T22:37:47.039Z,15.18
2019-05-22T22:40:18.942Z,16.05
2019-05-22T22:42:48.968Z,16.10
2019-05-22T22:45:21.084Z,15.32
2019-05-22T22:47:51.127Z,16.45
2019-05-22T22:50:21.552Z,13.00
2019-05-22T22:52:50.172Z,14.50
2019-05-22T22:55:20.693Z,13.50
2019-05-22T23:00:19.320Z,14.40
2019-05-22T23:02:49.058Z,14.90
2019-05-22T23:05:18.612Z,13.53
2019-05-22T23:07:48.533Z,15.18
2019-05-22T23:10:17.600Z,13.70
2019-05-22T23:12:46.831Z,13.28
2019-05-22T23:15:18.417Z,14.75
2019-05-22T23:17:48.498Z,14.40
2019-05-22T23:20:17.218Z,15.65
2019-05-22T23:22:44.569Z,15.18
2019-05-22T23:25:13.341Z,14.00
2019-05-22T23:27:41.753Z,14.83
2019-05-22T23:30:10.798Z,14.35
2019-05-22T23:32:41.207Z,14.55
2019-05-22T23:35:10.244Z,15.43
2019-05-22T23:37:40.301Z,16.05
2019-05-22T23:40:10.899Z,15.78
2019-05-22T23:45:19.741Z,14.90
2019-05-22T23:47:59.906Z,14.28
2019-05-22T23:50:30.621Z,15.75
2019-05-22T23:52:59.174Z,14.78
2019-05-22T23:55:29.720Z,13.22
